createdAt,value
2022-08-18T00:01:36.168Z,83.20
2022-08-18T00:04:12.459Z,82.98
2022-08-18T00:07:03.843Z,83.22
2022-08-18T00:09:37.424Z,83.52
2022-08-18T00:12:15.317Z,83.66
2022-08-18T00:14:50.790Z,83.85
2022-08-18T00:17:25.060Z,83.71
2022-08-18T00:19:58.252Z,84.08
2022-08-18T00:22:31.392Z,84.39
2022-08-18T00:25:04.127Z,84.47
2022-08-18T00:27:37.952Z,84.78
2022-08-18T00:30:14.111Z,85.37
2022-08-18T00:32:51.559Z,85.60
2022-08-18T00:35:28.863Z,85.83
2022-08-18T00:38:04.376Z,86.37
2022-08-18T00:40:45.339Z,85.99
2022-08-18T00:43:21.082Z,85.94
2022-08-18T00:45:53.949Z,85.72
2022-08-18T00:48:26.412Z,85.84
2022-08-18T00:51:03.826Z,85.69
2022-08-18T00:53:41.335Z,85.85
2022-08-18T00:56:18.300Z,86.13
2022-08-18T00:58:59.117Z,86.16
2022-08-18T01:01:34.401Z,86.30
2022-08-18T01:04:11.500Z,86.40
2022-08-18T01:06:47.014Z,86.39
2022-08-18T01:09:20.513Z,86.33
2022-08-18T01:11:54.160Z,86.59
2022-08-18T01:14:27.790Z,86.67
2022-08-18T01:17:18.323Z,86.81
2022-08-18T01:20:10.120Z,86.67
2022-08-18T01:22:54.412Z,86.79
2022-08-18T01:25:46.918Z,87.12
2022-08-18T01:28:21.700Z,87.11
2022-08-18T01:30:58.406Z,87.26
2022-08-18T01:33:34.166Z,87.55
2022-08-18T01:36:13.450Z,87.71
2022-08-18T01:38:47.846Z,87.78
2022-08-18T01:41:29.753Z,87.77
2022-08-18T01:44:05.270Z,87.97
2022-08-18T01:46:38.976Z,88.12
2022-08-18T01:49:13.477Z,88.34
2022-08-18T01:51:46.521Z,88.63
2022-08-18T01:54:18.579Z,88.58
2022-08-18T01:56:53.547Z,88.86
2022-08-18T01:59:26.019Z,88.80
2022-08-18T02:02:01.248Z,88.54
2022-08-18T02:04:37.314Z,88.54
2022-08-18T02:07:12.317Z,88.65
2022-08-18T02:09:45.295Z,88.71
2022-08-18T02:12:18.700Z,88.65
2022-08-18T02:14:53.163Z,88.52
2022-08-18T02:17:25.203Z,88.85
2022-08-18T02:19:58.743Z,89.27
2022-08-18T02:22:33.213Z,89.84
2022-08-18T02:25:09.301Z,90.07
2022-08-18T02:27:41.542Z,90.12
2022-08-18T02:30:18.083Z,90.10
2022-08-18T02:32:50.302Z,90.51
2022-08-18T02:35:23.697Z,90.48
2022-08-18T02:37:56.342Z,91.04
2022-08-18T02:40:29.937Z,91.02
2022-08-18T02:43:09.402Z,90.79
2022-08-18T02:45:41.946Z,90.93
2022-08-18T02:48:14.461Z,91.03
2022-08-18T02:50:47.928Z,91.10
2022-08-18T02:53:23.495Z,91.02
2022-08-18T02:55:55.903Z,91.05
2022-08-18T02:58:33.222Z,91.13
2022-08-18T03:01:07.294Z,91.13
2022-08-18T03:03:39.380Z,91.14
2022-08-18T03:06:12.348Z,91.12
2022-08-18T03:08:49.434Z,91.28
2022-08-18T03:11:23.682Z,91.43
2022-08-18T03:13:56.610Z,91.46
2022-08-18T03:16:33.201Z,91.58
2022-08-18T03:19:05.498Z,91.75
2022-08-18T03:21:38.489Z,91.85
2022-08-18T03:24:14.967Z,91.88
2022-08-18T03:26:51.331Z,92.00
2022-08-18T03:29:27.955Z,91.99
2022-08-18T03:32:06.785Z,92.18
2022-08-18T03:34:40.328Z,92.28
2022-08-18T03:37:12.278Z,92.19
2022-08-18T03:39:45.624Z,92.19
2022-08-18T03:42:21.064Z,92.41
2022-08-18T03:44:53.956Z,92.50
2022-08-18T03:47:29.498Z,92.73
2022-08-18T03:50:03.109Z,92.72
2022-08-18T03:52:41.612Z,92.99
2022-08-18T03:55:15.216Z,93.20
2022-08-18T03:57:48.224Z,93.20
2022-08-18T04:00:21.953Z,93.27
2022-08-18T04:02:54.462Z,93.08
2022-08-18T04:05:27.063Z,93.19
2022-08-18T04:07:59.749Z,93.31
2022-08-18T04:10:32.348Z,93.45
2022-08-18T04:13:06.545Z,93.69
2022-08-18T04:15:39.852Z,93.20
2022-08-18T04:18:12.940Z,92.43
2022-08-18T04:20:59.898Z,92.23
2022-08-18T04:23:43.378Z,92.07
2022-08-18T04:26:19.606Z,92.10
2022-08-18T04:28:51.683Z,92.27
2022-08-18T04:31:26.515Z,92.32
2022-08-18T04:34:00.051Z,92.49
2022-08-18T04:36:35.711Z,92.64
2022-08-18T04:39:10.087Z,92.71
2022-08-18T04:41:44.485Z,92.76
2022-08-18T04:44:18.398Z,92.76
2022-08-18T04:46:53.598Z,92.74
2022-08-18T04:49:27.398Z,92.84
2022-08-18T04:52:27.018Z,92.64
2022-08-18T04:55:12.559Z,92.53
2022-08-18T04:57:45.709Z,92.41
2022-08-18T05:00:19.607Z,92.39
2022-08-18T05:02:54.630Z,92.13
2022-08-18T05:05:28.720Z,91.85
2022-08-18T05:08:02.636Z,91.67
2022-08-18T05:10:35.405Z,91.39
2022-08-18T05:13:07.905Z,91.16
2022-08-18T05:16:07.032Z,91.17
2022-08-18T05:18:41.718Z,90.94
2022-08-18T05:21:16.735Z,90.80
2022-08-18T05:23:51.234Z,90.45
2022-08-18T05:26:24.273Z,90.20
2022-08-18T05:29:18.186Z,89.79
2022-08-18T05:31:51.728Z,89.52
2022-08-18T05:34:24.774Z,89.23
2022-08-18T05:37:09.058Z,88.57
2022-08-18T05:39:47.345Z,88.20
2022-08-18T05:42:22.944Z,87.55
2022-08-18T05:44:57.175Z,87.24
2022-08-18T05:47:31.999Z,86.59
2022-08-18T05:50:10.556Z,86.26
2022-08-18T05:52:53.631Z,85.71
2022-08-18T05:55:48.930Z,84.94
2022-08-18T05:58:23.775Z,84.11
2022-08-18T06:01:10.390Z,83.50
2022-08-18T06:03:47.934Z,82.74
2022-08-18T06:06:23.338Z,82.07
2022-08-18T06:09:08.687Z,81.30
2022-08-18T06:11:41.340Z,80.63
2022-08-18T06:14:15.417Z,79.80
2022-08-18T06:16:57.246Z,79.42
2022-08-18T06:19:37.145Z,79.10
2022-08-18T06:22:20.273Z,78.41
2022-08-18T06:24:55.541Z,77.59
2022-08-18T06:27:35.645Z,76.74
2022-08-18T06:30:11.894Z,76.08
2022-08-18T06:32:58.007Z,75.88
2022-08-18T06:35:36.511Z,75.64
2022-08-18T06:38:38.819Z,74.94
2022-08-18T06:41:41.465Z,73.99
2022-08-18T06:44:18.065Z,73.41
2022-08-18T06:46:54.449Z,73.14
2022-08-18T06:49:36.952Z,72.97
2022-08-18T06:52:29.330Z,73.01
2022-08-18T06:55:05.578Z,72.21
2022-08-18T06:57:40.977Z,71.67
2022-08-18T07:00:26.325Z,70.84
2022-08-18T07:03:14.701Z,70.32
2022-08-18T07:06:02.431Z,70.78
2022-08-18T07:08:37.482Z,70.83
2022-08-18T07:11:22.052Z,69.78
2022-08-18T07:14:15.042Z,69.20
2022-08-18T07:18:03.123Z,68.88
2022-08-18T07:21:01.281Z,68.15
2022-08-18T07:23:40.800Z,67.41
2022-08-18T07:26:18.067Z,67.76
2022-08-18T07:28:51.976Z,67.60
2022-08-18T07:31:40.180Z,67.16
2022-08-18T07:34:16.762Z,66.79
2022-08-18T07:36:55.138Z,66.67
2022-08-18T07:39:32.810Z,66.13
2022-08-18T07:42:14.489Z,65.50
2022-08-18T07:45:10.805Z,65.24
2022-08-18T07:48:34.956Z,64.76
2022-08-18T07:51:18.627Z,64.13
2022-08-18T07:54:44.998Z,63.61
2022-08-18T07:57:16.476Z,62.67
2022-08-18T08:00:10.482Z,61.97
2022-08-18T08:06:40.564Z,61.40
2022-08-18T08:09:41.189Z,61.10
2022-08-18T08:12:44.602Z,60.40
2022-08-18T08:15:58.290Z,59.88
2022-08-18T08:19:13.790Z,59.22
2022-08-18T08:22:33.881Z,58.60
2022-08-18T08:25:46.467Z,58.39
2022-08-18T08:28:37.117Z,57.92
2022-08-18T08:32:00.170Z,57.48
2022-08-18T08:41:05.655Z,55.69
2022-08-18T08:43:44.223Z,55.06
2022-08-18T08:49:55.078Z,53.79
2022-08-18T08:53:27.156Z,53.66
2022-08-18T09:02:49.650Z,52.72
2022-08-18T09:05:25.706Z,52.21
2022-08-18T09:11:52.358Z,51.15
2022-08-18T09:18:44.206Z,50.65
2022-08-18T09:21:50.235Z,50.38
2022-08-18T09:28:24.124Z,49.94
2022-08-18T09:31:20.646Z,49.42
2022-08-18T09:34:22.076Z,50.30
2022-08-18T09:37:14.210Z,49.93
2022-08-18T09:44:21.155Z,49.19
2022-08-18T09:47:33.571Z,49.02
2022-08-18T09:50:39.236Z,49.45
2022-08-18T10:07:43.980Z,48.22
2022-08-18T10:11:01.086Z,48.13
2022-08-18T10:14:45.110Z,47.51
2022-08-18T10:17:58.037Z,47.64
2022-08-18T10:20:46.567Z,47.40
2022-08-18T10:24:08.052Z,47.43
2022-08-18T10:27:30.564Z,47.76
2022-08-18T10:30:57.373Z,47.43
2022-08-18T10:44:27.672Z,46.44
2022-08-18T10:47:35.036Z,46.44
2022-08-18T10:50:38.012Z,46.07
2022-08-18T10:54:18.361Z,45.71
2022-08-18T10:57:24.510Z,45.61
2022-08-18T11:00:10.019Z,45.90
2022-08-18T11:07:10.584Z,45.41
2022-08-18T11:10:04.542Z,45.31
2022-08-18T11:16:53.904Z,45.54
2022-08-18T11:19:32.739Z,45.49
2022-08-18T11:25:57.400Z,45.26
2022-08-18T11:28:40.792Z,45.41
2022-08-18T11:31:17.708Z,44.82
2022-08-18T11:33:58.032Z,44.21
2022-08-18T11:41:08.886Z,44.60
2022-08-18T11:44:06.737Z,43.93
2022-08-18T11:46:46.408Z,44.00
2022-08-18T11:49:37.665Z,44.50
2022-08-18T11:52:29.495Z,43.66
2022-08-18T11:55:53.532Z,43.42
2022-08-18T11:58:51.689Z,42.90
2022-08-18T12:01:56.105Z,41.80
2022-08-18T12:07:57.830Z,41.63
2022-08-18T12:10:31.970Z,40.72
2022-08-18T12:13:13.118Z,39.91
2022-08-18T12:15:47.488Z,40.13
2022-08-18T12:18:28.944Z,40.29
2022-08-18T12:21:03.279Z,39.83
2022-08-18T12:23:39.124Z,38.68
2022-08-18T12:26:38.132Z,38.82
2022-08-18T12:29:12.781Z,38.75
2022-08-18T12:31:52.775Z,38.39
2022-08-18T12:34:27.315Z,38.14
2022-08-18T12:37:02.629Z,38.01
2022-08-18T12:39:44.525Z,37.21
2022-08-18T12:42:19.334Z,36.92
2022-08-18T12:44:53.243Z,36.69
2022-08-18T12:47:31.193Z,37.14
2022-08-18T12:50:04.496Z,36.83
2022-08-18T12:52:37.951Z,36.24
2022-08-18T12:58:08.223Z,35.39
2022-08-18T13:00:43.429Z,35.02
2022-08-18T13:03:16.957Z,34.57
2022-08-18T13:05:50.820Z,34.57
2022-08-18T13:08:30.615Z,35.03
2022-08-18T13:11:15.374Z,34.57
2022-08-18T13:13:56.173Z,33.61
2022-08-18T13:16:38.634Z,33.68
2022-08-18T13:19:13.293Z,33.98
2022-08-18T13:21:46.142Z,33.15
2022-08-18T13:24:21.979Z,32.44
2022-08-18T13:26:57.109Z,32.85
2022-08-18T13:29:30.145Z,32.72
2022-08-18T13:32:09.456Z,32.30
2022-08-18T13:34:42.639Z,32.59
2022-08-18T13:37:17.568Z,32.41
2022-08-18T13:39:53.365Z,32.28
2022-08-18T13:42:31.260Z,32.16
2022-08-18T13:45:25.517Z,32.33
2022-08-18T13:47:58.609Z,32.25
2022-08-18T13:50:30.735Z,31.58
2022-08-18T13:53:05.619Z,31.18
2022-08-18T13:55:39.274Z,31.26
2022-08-18T13:58:20.452Z,31.45
2022-08-18T14:00:54.865Z,31.06
2022-08-18T14:03:42.723Z,30.76
2022-08-18T14:06:23.627Z,30.59
2022-08-18T14:08:57.600Z,30.43
2022-08-18T14:11:33.307Z,30.28
2022-08-18T14:14:08.319Z,30.52
2022-08-18T14:16:42.411Z,30.20
2022-08-18T14:19:33.111Z,30.35
2022-08-18T14:22:26.432Z,30.24
2022-08-18T14:25:17.464Z,30.35
2022-08-18T14:27:57.236Z,30.02
2022-08-18T14:30:29.846Z,30.12
2022-08-18T14:33:02.697Z,29.55
2022-08-18T14:36:06.568Z,29.51
2022-08-18T14:38:30.298Z,29.70
2022-08-18T14:41:07.021Z,29.82
2022-08-18T14:44:00.422Z,29.76
2022-08-18T14:46:42.908Z,29.17
2022-08-18T14:50:00.607Z,29.58
2022-08-18T14:56:28.550Z,28.79
2022-08-18T14:59:29.502Z,29.01
2022-08-18T15:02:37.993Z,29.13
2022-08-18T15:05:19.764Z,29.67
2022-08-18T15:08:24.460Z,29.59
2022-08-18T15:11:25.382Z,29.76
2022-08-18T15:21:34.941Z,29.68
2022-08-18T15:24:37.650Z,29.40
2022-08-18T15:27:19.429Z,29.39
2022-08-18T15:29:57.907Z,29.21
2022-08-18T15:35:57.127Z,29.63
2022-08-18T15:38:30.299Z,30.31
2022-08-18T15:44:27.570Z,30.85
2022-08-18T15:47:03.957Z,30.33
2022-08-18T15:50:29.748Z,29.90
2022-08-18T15:53:09.199Z,30.01
2022-08-18T15:56:15.055Z,29.75
2022-08-18T15:58:52.336Z,29.17
2022-08-18T16:01:33.431Z,29.28
2022-08-18T16:04:11.663Z,29.62
2022-08-18T16:07:17.894Z,29.52
2022-08-18T16:10:53.243Z,29.92
2022-08-18T16:13:36.802Z,30.43
2022-08-18T16:17:01.791Z,30.87
2022-08-18T16:19:43.227Z,31.03
2022-08-18T16:22:18.939Z,31.64
2022-08-18T16:29:33.491Z,33.04
2022-08-18T16:32:58.451Z,33.49
2022-08-18T16:35:35.604Z,34.23
2022-08-18T16:38:13.394Z,34.80
2022-08-18T16:40:52.349Z,35.26
2022-08-18T16:43:35.455Z,35.87
2022-08-18T16:49:34.696Z,37.83
2022-08-18T16:52:14.445Z,37.75
2022-08-18T16:54:58.042Z,37.99
2022-08-18T17:01:04.899Z,38.74
2022-08-18T17:04:03.364Z,39.12
2022-08-18T17:06:59.811Z,39.71
2022-08-18T17:09:35.221Z,40.17
2022-08-18T17:12:14.023Z,40.63
2022-08-18T17:14:51.969Z,41.01
2022-08-18T17:17:35.566Z,41.30
2022-08-18T17:20:22.014Z,41.76
2022-08-18T17:23:20.444Z,42.14
2022-08-18T17:25:54.979Z,42.41
2022-08-18T17:28:31.000Z,42.63
2022-08-18T17:31:16.379Z,43.04
2022-08-18T17:40:51.910Z,44.12
2022-08-18T17:43:30.024Z,44.48
2022-08-18T17:46:10.440Z,44.83
2022-08-18T17:48:54.901Z,45.26
2022-08-18T17:51:55.190Z,45.60
2022-08-18T17:58:31.171Z,46.52
2022-08-18T18:01:28.968Z,46.80
2022-08-18T18:04:25.944Z,47.29
2022-08-18T18:07:21.867Z,47.44
2022-08-18T18:11:04.847Z,47.89
2022-08-18T18:13:43.067Z,48.36
2022-08-18T18:16:41.631Z,48.80
2022-08-18T18:19:15.170Z,48.98
2022-08-18T18:22:17.686Z,49.23
2022-08-18T18:24:54.982Z,49.40
2022-08-18T18:30:39.324Z,50.06
2022-08-18T18:33:25.218Z,50.27
2022-08-18T18:36:25.278Z,50.37
2022-08-18T18:39:56.359Z,50.53
2022-08-18T18:43:03.242Z,50.97
2022-08-18T18:46:02.904Z,51.15
2022-08-18T18:48:52.465Z,51.16
2022-08-18T18:58:48.669Z,52.16
2022-08-18T19:01:58.548Z,52.44
2022-08-18T19:05:04.714Z,52.82
2022-08-18T19:08:00.764Z,52.96
2022-08-18T19:14:18.169Z,53.88
2022-08-18T19:16:58.672Z,53.97
2022-08-18T19:20:04.235Z,54.22
2022-08-18T19:22:47.637Z,54.38
2022-08-18T19:25:28.986Z,54.35
2022-08-18T19:28:09.149Z,54.69
2022-08-18T19:30:53.562Z,55.17
2022-08-18T19:33:37.133Z,55.05
2022-08-18T19:36:42.043Z,55.06
2022-08-18T19:39:44.947Z,55.42
2022-08-18T19:42:51.837Z,55.52
2022-08-18T19:45:55.561Z,55.74
2022-08-18T19:48:46.130Z,55.91
2022-08-18T19:51:34.218Z,55.90
2022-08-18T19:54:41.113Z,56.09
2022-08-18T19:57:29.814Z,56.33
2022-08-18T20:00:26.291Z,56.41
2022-08-18T20:03:24.053Z,56.68
2022-08-18T20:06:47.773Z,56.79
2022-08-18T20:10:06.805Z,56.92
2022-08-18T20:13:03.097Z,57.37
2022-08-18T20:16:04.227Z,57.59
2022-08-18T20:18:44.230Z,57.69
2022-08-18T20:25:47.356Z,58.14
2022-08-18T20:28:39.740Z,58.60
2022-08-18T20:31:19.160Z,58.38
2022-08-18T20:34:37.598Z,58.71
2022-08-18T20:37:13.368Z,58.74
2022-08-18T20:40:41.084Z,58.97
2022-08-18T20:43:30.509Z,59.25
2022-08-18T20:46:25.169Z,59.29
2022-08-18T20:49:47.670Z,59.21
2022-08-18T20:56:49.829Z,59.78
2022-08-18T21:02:59.676Z,60.02
2022-08-18T21:05:42.284Z,60.37
2022-08-18T21:08:38.133Z,60.35
2022-08-18T21:11:32.345Z,60.46
2022-08-18T21:14:34.275Z,60.64
2022-08-18T21:17:31.892Z,60.73
2022-08-18T21:20:51.844Z,60.81
2022-08-18T21:23:33.961Z,60.84
2022-08-18T21:26:14.880Z,60.90
2022-08-18T21:29:47.240Z,61.16
2022-08-18T21:33:05.650Z,61.35
2022-08-18T21:40:30.145Z,61.38
2022-08-18T21:43:13.888Z,61.27
2022-08-18T21:46:00.988Z,61.28
2022-08-18T21:48:41.584Z,61.25
2022-08-18T21:51:45.935Z,61.32
2022-08-18T21:58:17.010Z,61.31
2022-08-18T22:01:19.080Z,61.46
2022-08-18T22:04:03.556Z,61.68
2022-08-18T22:07:03.321Z,61.68
2022-08-18T22:10:19.595Z,61.85
2022-08-18T22:13:24.024Z,61.91
2022-08-18T22:15:59.452Z,62.14
2022-08-18T22:18:45.558Z,62.47
2022-08-18T22:25:05.909Z,62.91
2022-08-18T22:28:11.761Z,63.02
2022-08-18T22:30:51.914Z,63.29
2022-08-18T22:33:30.089Z,63.53
2022-08-18T22:36:09.272Z,63.42
2022-08-18T22:38:47.776Z,63.44
2022-08-18T22:41:28.067Z,63.50
2022-08-18T22:50:41.397Z,63.79
2022-08-18T22:53:49.930Z,64.08
2022-08-18T22:56:34.324Z,64.25
2022-08-18T22:59:33.087Z,64.27
2022-08-18T23:02:55.405Z,64.54
2022-08-18T23:05:58.411Z,64.86
2022-08-18T23:09:05.766Z,64.80
2022-08-18T23:11:42.890Z,65.14
2022-08-18T23:17:29.613Z,65.38
2022-08-18T23:20:17.636Z,65.66
2022-08-18T23:23:21.473Z,65.67
2022-08-18T23:25:59.523Z,66.06
2022-08-18T23:28:55.969Z,66.15
2022-08-18T23:32:29.596Z,66.26
2022-08-18T23:35:56.843Z,66.48
2022-08-18T23:38:57.806Z,66.72
2022-08-18T23:45:33.296Z,66.94
2022-08-18T23:48:31.677Z,66.88
2022-08-18T23:51:06.835Z,67.14
2022-08-18T23:54:27.121Z,67.15
2022-08-18T23:57:29.383Z,67.37
